This is the latest recevied weather packets stored in our database for station/object lw9ero. If no packets are shown the sender has not sent any weather packets the latest 10 day(s).
| Time | Temp. | Humidity | Pressure | Rain* | Wind** | Luminosity | Snow |
|---|---|---|---|---|---|---|---|
| 1777690498 | 12.22° C | 77% | 1021.7 hPa | 0 mm | - | - | - |
| 1777689892 | 12.22° C | 76% | 1021.7 hPa | 0 mm | - | - | - |
| 1777689285 | 12.78° C | 75% | 1021.4 hPa | 0 mm | - | - | - |
| 1777688679 | 12.22° C | 74% | 1021.7 hPa | 0 mm | - | - | - |
| 1777688073 | 12.78° C | 73% | 1020.5 hPa | 0 mm | - | - | - |
| 1777687468 | 12.78° C | 71% | 1020.8 hPa | 0 mm | - | - | - |
| 1777686861 | 13.33° C | 69% | 1020.5 hPa | 0 mm | - | - | - |
| 1777686255 | 13.89° C | 67% | 1020.6 hPa | 0 mm | - | - | - |
| 1777685650 | 13.89° C | 66% | 1020.2 hPa | 0 mm | - | 189 W/m² | - |
| 1777685055 | 14.44° C | 65% | 1019.9 hPa | 0 mm | - | 189 W/m² | - |
| 1777684436 | 14.44° C | 63% | 1020 hPa | 0 mm | - | 189 W/m² | - |
| 1777683830 | 15° C | 62% | 1019.7 hPa | 0 mm | - | 189 W/m² | - |
| 1777683223 | 15° C | 60% | 1019.6 hPa | 0 mm | - | 298 W/m² | - |
| 1777682618 | 15° C | 60% | 1019.3 hPa | 0 mm | - | 298 W/m² | - |
| 1777682011 | 15.56° C | 58% | 1019.1 hPa | 0 mm | - | 298 W/m² | - |
| 1777681405 | 15.56° C | 59% | 1019.1 hPa | 0 mm | - | 408 W/m² | - |
| 1777680800 | 15.56° C | 59% | 1018.8 hPa | 0 mm | - | 408 W/m² | - |
| 1777680193 | 16.11° C | 60% | 1018.4 hPa | 0 mm | - | 408 W/m² | - |
| 1777679588 | 16.67° C | 57% | 1018.3 hPa | 0 mm | - | 590 W/m² | - |
| 1777678980 | 16.11° C | 58% | 1017.7 hPa | 0 mm | - | 590 W/m² | - |
| 1777678374 | 15.56° C | 64% | 1017.5 hPa | 0 mm | - | 590 W/m² | - |
| 1777677768 | 15.56° C | 66% | 1017 hPa | 0 mm | - | 773 W/m² | - |
| 1777677162 | 15.56° C | 70% | 1016.9 hPa | 0 mm | - | 773 W/m² | - |
| 1777676556 | 15.56° C | 74% | 1016.8 hPa | 0 mm | - | 773 W/m² | - |
| 1777675950 | 15.56° C | 74% | 1016.5 hPa | 0 mm | - | 957 W/m² | - |
* Rain latest hour (hover to see other rain measurements)
** Current wind speed in m/s (hover to see current wind gust speed)